createdAt,value
2022-08-21T00:02:20.844Z,98671.41
2022-08-21T00:04:57.458Z,98673.97
2022-08-21T00:07:26.801Z,98665.42
2022-08-21T00:09:55.321Z,98663.34
2022-08-21T00:12:23.337Z,98657.63
2022-08-21T00:14:51.087Z,98657.52
2022-08-21T00:17:25.037Z,98657.86
2022-08-21T00:19:52.777Z,98654.85
2022-08-21T00:22:20.745Z,98658.30
2022-08-21T00:24:48.591Z,98659.93
2022-08-21T00:27:16.268Z,98659.78
2022-08-21T00:29:43.888Z,98656.27
2022-08-21T00:32:11.520Z,98651.21
2022-08-21T00:34:39.229Z,98649.11
2022-08-21T00:37:09.069Z,98649.02
2022-08-21T00:39:36.769Z,98642.91
2022-08-21T00:42:04.892Z,98635.61
2022-08-21T00:44:32.802Z,98634.16
2022-08-21T00:47:00.576Z,98632.16
2022-08-21T00:49:28.511Z,98627.04
2022-08-21T00:51:59.273Z,98621.16
2022-08-21T00:54:29.046Z,98625.80
2022-08-21T00:57:00.625Z,98626.95
2022-08-21T00:59:30.933Z,98626.84
2022-08-21T01:01:58.747Z,98624.73
2022-08-21T01:04:26.463Z,98621.55
2022-08-21T01:06:56.012Z,98623.34
2022-08-21T01:09:23.669Z,98615.89
2022-08-21T01:11:51.662Z,98611.98
2022-08-21T01:14:20.740Z,98612.86
2022-08-21T01:16:51.964Z,98613.19
2022-08-21T01:19:21.627Z,98613.96
2022-08-21T01:21:49.582Z,98613.47
2022-08-21T01:24:17.849Z,98608.89
2022-08-21T01:26:45.661Z,98610.66
2022-08-21T01:29:21.156Z,98611.16
2022-08-21T01:31:49.029Z,98607.48
2022-08-21T01:34:16.990Z,98609.10
2022-08-21T01:36:46.421Z,98611.46
2022-08-21T01:39:14.414Z,98609.36
2022-08-21T01:41:42.668Z,98603.58
2022-08-21T01:44:10.571Z,98599.46
2022-08-21T01:46:38.322Z,98598.08
2022-08-21T01:49:06.663Z,98593.96
2022-08-21T01:51:34.594Z,98587.64
2022-08-21T01:54:02.281Z,98585.05
2022-08-21T01:56:30.088Z,98580.95
2022-08-21T01:58:57.808Z,98580.67
2022-08-21T02:01:25.549Z,98578.71
2022-08-21T02:03:53.244Z,98574.82
2022-08-21T02:06:20.989Z,98578.88
2022-08-21T02:08:49.111Z,98574.77
2022-08-21T02:11:16.909Z,98576.82
2022-08-21T02:13:44.611Z,98577.63
2022-08-21T02:16:13.464Z,98579.18
2022-08-21T02:18:47.234Z,98577.34
2022-08-21T02:21:14.990Z,98574.86
2022-08-21T02:23:42.976Z,98571.46
2022-08-21T02:26:11.342Z,98570.27
2022-08-21T02:28:40.399Z,98563.04
2022-08-21T02:31:10.755Z,98559.08
2022-08-21T02:33:38.574Z,98554.92
2022-08-21T02:36:07.132Z,98554.66
2022-08-21T02:38:38.699Z,98559.91
2022-08-21T02:41:08.650Z,98559.68
2022-08-21T02:43:36.774Z,98561.10
2022-08-21T02:46:06.550Z,98558.08
2022-08-21T02:48:34.623Z,98560.93
2022-08-21T02:51:12.709Z,98555.86
2022-08-21T02:53:41.978Z,98558.02
2022-08-21T02:56:12.771Z,98558.89
2022-08-21T02:58:44.653Z,98557.98
2022-08-21T03:01:13.273Z,98554.63
2022-08-21T03:03:43.270Z,98552.27
2022-08-21T03:06:13.207Z,98544.38
2022-08-21T03:08:40.963Z,98545.72
2022-08-21T03:11:10.735Z,98544.11
2022-08-21T03:13:40.018Z,98544.88
2022-08-21T03:16:09.799Z,98545.75
2022-08-21T03:18:38.832Z,98542.45
2022-08-21T03:21:08.043Z,98547.54
2022-08-21T03:23:38.477Z,98547.39
2022-08-21T03:26:09.206Z,98556.52
2022-08-21T03:28:36.935Z,98550.14
2022-08-21T03:31:05.717Z,98554.19
2022-08-21T03:33:33.965Z,98550.67
2022-08-21T03:36:06.396Z,98552.88
2022-08-21T03:38:35.233Z,98555.35
2022-08-21T03:41:04.536Z,98557.34
2022-08-21T03:43:32.865Z,98559.42
2022-08-21T03:46:04.515Z,98561.80
2022-08-21T03:48:34.296Z,98563.80
2022-08-21T03:51:02.116Z,98561.23
2022-08-21T03:53:31.256Z,98558.64
2022-08-21T03:55:59.482Z,98553.48
2022-08-21T03:58:28.753Z,98551.09
2022-08-21T04:00:59.107Z,98551.02
2022-08-21T04:03:28.048Z,98547.34
2022-08-21T04:05:56.109Z,98543.38
2022-08-21T04:08:24.034Z,98546.84
2022-08-21T04:10:53.815Z,98551.09
2022-08-21T04:13:21.926Z,98550.16
2022-08-21T04:15:50.162Z,98552.48
2022-08-21T04:18:18.128Z,98548.69
2022-08-21T04:20:50.120Z,98550.73
2022-08-21T04:23:23.741Z,98548.64
2022-08-21T04:25:54.020Z,98548.73
2022-08-21T04:28:23.401Z,98545.10
2022-08-21T04:30:53.198Z,98542.88
2022-08-21T04:33:21.806Z,98546.95
2022-08-21T04:35:50.368Z,98550.20
2022-08-21T04:38:18.577Z,98551.33
2022-08-21T04:40:46.338Z,98547.69
2022-08-21T04:43:13.997Z,98543.94
2022-08-21T04:45:45.485Z,98549.55
2022-08-21T04:48:14.909Z,98553.86
2022-08-21T04:51:02.345Z,98558.45
2022-08-21T04:53:37.135Z,98556.86
2022-08-21T04:56:16.604Z,98557.33
2022-08-21T04:58:44.422Z,98556.95
2022-08-21T05:01:18.034Z,98558.60
2022-08-21T05:03:49.886Z,98555.48
2022-08-21T05:06:17.920Z,98555.42
2022-08-21T05:08:48.120Z,98557.59
2022-08-21T05:11:15.938Z,98559.29
2022-08-21T05:13:43.731Z,98567.59
2022-08-21T05:16:11.546Z,98570.23
2022-08-21T05:18:39.697Z,98571.39
2022-08-21T05:21:07.402Z,98576.47
2022-08-21T05:23:35.422Z,98574.75
2022-08-21T05:26:05.277Z,98579.99
2022-08-21T05:28:35.811Z,98582.56
2022-08-21T05:31:03.642Z,98586.59
2022-08-21T05:33:31.668Z,98591.54
2022-08-21T05:35:59.418Z,98597.95
2022-08-21T05:38:29.291Z,98597.64
2022-08-21T05:40:57.298Z,98600.13
2022-08-21T05:43:25.209Z,98604.14
2022-08-21T05:45:52.888Z,98603.70
2022-08-21T05:48:23.447Z,98603.67
2022-08-21T05:50:52.764Z,98602.02
2022-08-21T05:53:22.007Z,98601.70
2022-08-21T05:55:50.453Z,98597.52
2022-08-21T05:58:20.719Z,98592.70
2022-08-21T06:00:50.038Z,98593.16
2022-08-21T06:03:40.054Z,98595.13
2022-08-21T06:06:08.280Z,98599.17
2022-08-21T06:08:36.691Z,98603.61
2022-08-21T06:11:05.676Z,98600.96
2022-08-21T06:13:34.103Z,98600.80
2022-08-21T06:16:16.907Z,98601.52
2022-08-21T06:18:46.729Z,98611.52
2022-08-21T06:21:14.607Z,98613.59
2022-08-21T06:23:43.647Z,98608.02
2022-08-21T06:26:14.909Z,98601.05
2022-08-21T06:28:43.149Z,98600.83
2022-08-21T06:31:17.118Z,98608.27
2022-08-21T06:33:45.116Z,98606.52
2022-08-21T06:36:12.868Z,98611.23
2022-08-21T06:38:41.967Z,98613.95
2022-08-21T06:41:24.319Z,98608.44
2022-08-21T06:43:57.162Z,98609.10
2022-08-21T06:46:28.069Z,98607.38
2022-08-21T06:48:56.541Z,98608.48
2022-08-21T06:51:26.605Z,98608.61
2022-08-21T06:53:55.044Z,98609.36
2022-08-21T06:56:22.887Z,98605.98
2022-08-21T06:58:50.640Z,98607.52
2022-08-21T07:01:25.649Z,98604.11
2022-08-21T07:03:54.805Z,98609.55
2022-08-21T07:06:22.623Z,98613.02
2022-08-21T07:08:50.463Z,98613.19
2022-08-21T07:11:23.472Z,98608.98
2022-08-21T07:13:54.183Z,98611.70
2022-08-21T07:16:21.972Z,98609.61
2022-08-21T07:18:50.349Z,98611.88
2022-08-21T07:21:25.226Z,98613.79
2022-08-21T07:23:54.655Z,98612.39
2022-08-21T07:26:24.066Z,98608.92
2022-08-21T07:28:52.446Z,98615.61
2022-08-21T07:31:25.076Z,98618.91
2022-08-21T07:33:57.178Z,98615.11
2022-08-21T07:36:25.050Z,98611.61
2022-08-21T07:38:54.253Z,98611.00
2022-08-21T07:41:27.494Z,98611.96
2022-08-21T07:44:00.220Z,98613.16
2022-08-21T07:46:29.181Z,98610.02
2022-08-21T07:48:57.229Z,98612.00
2022-08-21T07:51:28.275Z,98609.15
2022-08-21T07:53:57.969Z,98607.43
2022-08-21T07:56:26.112Z,98601.55
2022-08-21T07:58:54.092Z,98596.35
2022-08-21T08:01:28.632Z,98601.52
2022-08-21T08:04:04.496Z,98601.81
2022-08-21T08:06:38.743Z,98593.83
2022-08-21T08:09:06.579Z,98596.20
2022-08-21T08:11:34.522Z,98596.35
2022-08-21T08:14:04.863Z,98599.15
2022-08-21T08:16:32.810Z,98596.54
2022-08-21T08:19:00.685Z,98603.33
2022-08-21T08:21:31.321Z,98589.42
2022-08-21T08:24:18.507Z,98596.36
2022-08-21T08:26:56.004Z,98590.61
2022-08-21T08:29:25.970Z,98597.56
2022-08-21T08:32:00.214Z,98595.70
2022-08-21T08:34:32.426Z,98595.92
2022-08-21T08:37:01.976Z,98596.27
2022-08-21T08:39:43.701Z,98597.73
2022-08-21T08:42:32.866Z,98596.98
2022-08-21T08:45:23.937Z,98598.69
2022-08-21T08:48:06.657Z,98596.02
2022-08-21T08:50:50.991Z,98599.42
2022-08-21T08:53:30.275Z,98598.96
2022-08-21T08:56:00.803Z,98599.34
2022-08-21T08:58:31.660Z,98598.50
2022-08-21T09:01:01.140Z,98600.54
2022-08-21T09:03:31.156Z,98600.10
2022-08-21T09:06:11.818Z,98597.74
2022-08-21T09:09:23.561Z,98598.62
2022-08-21T09:12:43.893Z,98585.96
2022-08-21T09:15:23.125Z,98586.06
2022-08-21T09:18:53.211Z,98590.06
2022-08-21T09:21:50.705Z,98591.67
2022-08-21T09:24:27.992Z,98585.84
2022-08-21T09:27:44.494Z,98588.88
2022-08-21T09:31:18.064Z,98592.14
2022-08-21T09:34:35.226Z,98593.63
2022-08-21T09:37:40.373Z,98586.20
2022-08-21T09:41:55.662Z,98586.87
2022-08-21T09:45:11.338Z,98576.48
2022-08-21T09:51:45.890Z,98581.11
2022-08-21T09:54:47.857Z,98578.08
2022-08-21T09:57:50.495Z,98579.08
2022-08-21T10:00:46.974Z,98574.72
2022-08-21T10:03:52.940Z,98575.53
2022-08-21T10:07:06.102Z,98578.32
2022-08-21T10:10:24.019Z,98576.36
2022-08-21T10:13:25.701Z,98579.28
2022-08-21T10:20:34.999Z,98583.52
2022-08-21T10:24:31.803Z,98575.74
2022-08-21T10:28:12.894Z,98580.91
2022-08-21T10:31:28.324Z,98568.98
2022-08-21T10:35:23.664Z,98573.58
2022-08-21T10:39:12.098Z,98574.02
2022-08-21T10:46:01.679Z,98581.38
2022-08-21T10:49:40.776Z,98579.89
2022-08-21T10:53:04.348Z,98574.74
2022-08-21T10:55:47.884Z,98580.71
2022-08-21T10:58:39.662Z,98580.39
2022-08-21T11:01:22.370Z,98579.98
2022-08-21T11:04:18.193Z,98573.34
2022-08-21T11:06:51.438Z,98578.19
2022-08-21T11:09:22.883Z,98577.25
2022-08-21T11:12:11.369Z,98575.95
2022-08-21T11:14:50.326Z,98572.41
2022-08-21T11:17:25.576Z,98571.56
2022-08-21T11:20:12.853Z,98579.55
2022-08-21T11:23:03.717Z,98577.48
2022-08-21T11:25:41.137Z,98577.16
2022-08-21T11:28:23.954Z,98572.41
2022-08-21T11:31:37.564Z,98572.49
2022-08-21T11:34:24.222Z,98569.09
2022-08-21T11:37:08.242Z,98569.64
2022-08-21T11:39:48.371Z,98571.46
2022-08-21T11:42:39.391Z,98568.73
2022-08-21T11:45:16.007Z,98575.61
2022-08-21T11:47:59.469Z,98578.50
2022-08-21T11:50:35.789Z,98581.13
2022-08-21T11:53:19.314Z,98575.20
2022-08-21T11:55:52.606Z,98575.84
2022-08-21T11:58:25.376Z,98573.75
2022-08-21T12:01:02.323Z,98577.32
2022-08-21T12:03:44.671Z,98574.90
2022-08-21T12:06:15.348Z,98579.21
2022-08-21T12:09:00.321Z,98581.35
2022-08-21T12:11:30.858Z,98579.85
2022-08-21T12:14:12.298Z,98577.90
2022-08-21T12:16:46.588Z,98579.69
2022-08-21T12:19:16.689Z,98583.35
2022-08-21T12:21:58.582Z,98583.90
2022-08-21T12:24:29.361Z,98583.30
2022-08-21T12:27:01.221Z,98580.77
2022-08-21T12:29:36.926Z,98578.64
2022-08-21T12:32:06.656Z,98580.23
2022-08-21T12:34:49.567Z,98576.10
2022-08-21T12:37:41.633Z,98574.20
2022-08-21T12:41:15.393Z,98576.07
2022-08-21T12:44:27.127Z,98568.54
2022-08-21T12:47:46.898Z,98575.86
2022-08-21T12:54:45.342Z,98569.92
2022-08-21T12:57:54.147Z,98563.84
2022-08-21T13:01:14.399Z,98568.30
2022-08-21T13:04:29.871Z,98564.65
2022-08-21T13:07:47.928Z,98564.48
2022-08-21T13:10:39.131Z,98555.54
2022-08-21T13:13:50.115Z,98560.66
2022-08-21T13:16:57.765Z,98558.64
2022-08-21T13:19:48.194Z,98553.27
2022-08-21T13:23:06.430Z,98555.36
2022-08-21T13:28:58.403Z,98552.80
2022-08-21T13:32:03.255Z,98551.60
2022-08-21T13:34:59.191Z,98552.89
2022-08-21T13:38:12.338Z,98555.52
2022-08-21T13:41:37.949Z,98549.35
2022-08-21T13:48:42.899Z,98553.85
2022-08-21T13:51:31.990Z,98553.72
2022-08-21T13:54:49.247Z,98554.20
2022-08-21T14:01:25.243Z,98557.17
2022-08-21T14:04:14.504Z,98554.70
2022-08-21T14:14:38.692Z,98560.08
2022-08-21T14:26:24.018Z,98562.66
2022-08-21T14:29:27.049Z,98565.98
2022-08-21T14:35:38.152Z,98562.84
2022-08-21T14:38:55.053Z,98559.28
2022-08-21T14:42:37.251Z,98554.48
2022-08-21T14:49:07.506Z,98553.09
2022-08-21T14:52:09.420Z,98546.69
2022-08-21T14:55:28.761Z,98555.23
2022-08-21T14:58:19.850Z,98548.27
2022-08-21T15:01:03.704Z,98547.18
2022-08-21T15:04:32.271Z,98552.86
2022-08-21T15:07:46.719Z,98555.13
2022-08-21T15:11:10.038Z,98553.45
2022-08-21T15:14:14.435Z,98550.23
2022-08-21T15:17:29.348Z,98560.30
2022-08-21T15:20:52.453Z,98550.17
2022-08-21T15:24:09.940Z,98555.80
2022-08-21T15:26:56.831Z,98550.33
2022-08-21T15:29:45.864Z,98559.89
2022-08-21T15:33:05.376Z,98560.40
2022-08-21T15:35:43.041Z,98557.95
2022-08-21T15:38:21.288Z,98543.41
2022-08-21T15:40:56.355Z,98548.48
2022-08-21T15:43:30.681Z,98561.44
2022-08-21T15:46:02.142Z,98563.38
2022-08-21T15:48:33.791Z,98562.88
2022-08-21T15:51:06.997Z,98564.77
2022-08-21T15:53:40.781Z,98567.70
2022-08-21T15:56:24.710Z,98569.52
2022-08-21T15:59:20.185Z,98570.08
2022-08-21T16:01:55.102Z,98574.96
2022-08-21T16:04:34.146Z,98573.06
2022-08-21T16:07:09.388Z,98575.95
2022-08-21T16:09:38.450Z,98582.23
2022-08-21T16:12:18.211Z,98588.14
2022-08-21T16:14:46.133Z,98592.92
2022-08-21T16:17:54.037Z,98591.30
2022-08-21T16:20:53.160Z,98594.89
2022-08-21T16:23:29.585Z,98596.38
2022-08-21T16:26:01.364Z,98603.39
2022-08-21T16:28:31.371Z,98603.84
2022-08-21T16:31:20.967Z,98597.20
2022-08-21T16:34:38.863Z,98570.73
2022-08-21T16:37:30.991Z,98569.80
2022-08-21T16:40:08.540Z,98583.06
2022-08-21T16:42:47.167Z,98592.95
2022-08-21T16:45:44.830Z,98599.52
2022-08-21T16:48:23.847Z,98585.30
2022-08-21T16:51:01.715Z,98586.05
2022-08-21T16:53:32.418Z,98588.95
2022-08-21T16:56:02.657Z,98602.67
2022-08-21T16:58:44.660Z,98605.87
2022-08-21T17:01:25.895Z,98612.63
2022-08-21T17:03:56.977Z,98614.50
2022-08-21T17:06:37.232Z,98613.16
2022-08-21T17:09:09.329Z,98621.13
2022-08-21T17:11:46.724Z,98622.77
2022-08-21T17:14:21.187Z,98625.73
2022-08-21T17:16:57.834Z,98626.26
2022-08-21T17:19:28.316Z,98624.70
2022-08-21T17:22:09.444Z,98617.66
2022-08-21T17:24:46.824Z,98624.30
2022-08-21T17:27:22.231Z,98615.00
2022-08-21T17:30:07.518Z,98620.05
2022-08-21T17:32:38.796Z,98627.91
2022-08-21T17:35:28.393Z,98627.04
2022-08-21T17:37:57.701Z,98620.09
2022-08-21T17:40:25.844Z,98630.56
2022-08-21T17:42:53.970Z,98633.97
2022-08-21T17:45:22.142Z,98635.65
2022-08-21T17:47:49.911Z,98639.77
2022-08-21T17:50:22.843Z,98634.80
2022-08-21T17:52:52.556Z,98634.37
2022-08-21T17:55:21.025Z,98633.28
2022-08-21T17:57:50.829Z,98631.98
2022-08-21T18:00:20.049Z,98634.90
2022-08-21T18:02:51.177Z,98641.34
2022-08-21T18:05:19.460Z,98646.27
2022-08-21T18:07:47.273Z,98648.55
2022-08-21T18:10:15.098Z,98648.29
2022-08-21T18:12:43.986Z,98651.33
2022-08-21T18:15:17.228Z,98655.77
2022-08-21T18:17:47.916Z,98654.20
2022-08-21T18:20:18.777Z,98655.05
2022-08-21T18:22:47.039Z,98656.30
2022-08-21T18:25:15.272Z,98655.31
2022-08-21T18:27:45.725Z,98651.99
2022-08-21T18:30:18.406Z,98658.45
2022-08-21T18:32:47.133Z,98660.25
2022-08-21T18:35:15.869Z,98665.23
2022-08-21T18:37:44.455Z,98663.61
2022-08-21T18:40:12.466Z,98669.86
2022-08-21T18:42:55.520Z,98669.14
2022-08-21T18:45:24.113Z,98666.98
2022-08-21T18:47:54.139Z,98672.30
2022-08-21T18:50:25.516Z,98670.54
2022-08-21T18:52:54.521Z,98672.55
2022-08-21T18:55:24.414Z,98672.55
2022-08-21T18:57:54.598Z,98671.73
2022-08-21T19:00:30.425Z,98669.10
2022-08-21T19:02:58.494Z,98669.17
2022-08-21T19:05:26.775Z,98669.54
2022-08-21T19:07:56.605Z,98673.35
2022-08-21T19:10:28.677Z,98677.42
2022-08-21T19:13:14.141Z,98677.98
2022-08-21T19:15:43.285Z,98682.10
2022-08-21T19:18:14.613Z,98681.29
2022-08-21T19:20:43.009Z,98687.74
2022-08-21T19:23:15.794Z,98686.89
2022-08-21T19:25:46.684Z,98689.42
2022-08-21T19:28:27.079Z,98685.63
2022-08-21T19:31:01.864Z,98685.42
2022-08-21T19:33:33.780Z,98685.86
2022-08-21T19:36:02.117Z,98685.47
2022-08-21T19:38:30.165Z,98684.83
2022-08-21T19:41:00.410Z,98686.94
2022-08-21T19:43:29.601Z,98686.40
2022-08-21T19:45:57.942Z,98688.93
2022-08-21T19:48:26.252Z,98691.86
2022-08-21T19:51:00.913Z,98691.32
2022-08-21T19:53:40.345Z,98689.27
2022-08-21T19:56:12.570Z,98689.64
2022-08-21T19:58:43.195Z,98690.41
2022-08-21T20:01:16.562Z,98694.59
2022-08-21T20:03:54.118Z,98688.77
2022-08-21T20:06:24.502Z,98687.05
2022-08-21T20:08:54.984Z,98684.71
2022-08-21T20:11:34.352Z,98688.94
2022-08-21T20:14:02.187Z,98692.62
2022-08-21T20:16:30.342Z,98691.48
2022-08-21T20:18:58.311Z,98690.29
2022-08-21T20:21:26.345Z,98688.98
2022-08-21T20:23:56.622Z,98687.45
2022-08-21T20:26:26.529Z,98687.02
2022-08-21T20:28:55.103Z,98686.48
2022-08-21T20:31:28.190Z,98684.78
2022-08-21T20:33:56.008Z,98681.21
2022-08-21T20:36:25.002Z,98679.48
2022-08-21T20:38:52.877Z,98677.20
2022-08-21T20:41:30.542Z,98676.65
2022-08-21T20:44:00.431Z,98672.65
2022-08-21T20:46:30.425Z,98673.80
2022-08-21T20:48:58.813Z,98674.40
2022-08-21T20:51:33.392Z,98671.64
2022-08-21T20:54:07.409Z,98671.75
2022-08-21T20:56:58.114Z,98672.94
2022-08-21T20:59:35.229Z,98675.87
2022-08-21T21:02:42.711Z,98671.42
2022-08-21T21:05:28.110Z,98675.77
2022-08-21T21:08:05.931Z,98673.39
2022-08-21T21:10:49.744Z,98677.02
2022-08-21T21:13:24.387Z,98680.31
2022-08-21T21:15:56.366Z,98675.27
2022-08-21T21:19:00.870Z,98675.33
2022-08-21T21:21:38.022Z,98678.69
2022-08-21T21:24:19.225Z,98674.95
2022-08-21T21:26:54.294Z,98672.77
2022-08-21T21:29:35.568Z,98672.01
2022-08-21T21:32:05.217Z,98676.50
2022-08-21T21:34:39.659Z,98674.29
2022-08-21T21:37:18.227Z,98677.05
2022-08-21T21:40:24.204Z,98679.16
2022-08-21T21:43:04.024Z,98673.42
2022-08-21T21:45:35.526Z,98676.30
2022-08-21T21:48:31.129Z,98672.94
2022-08-21T21:51:19.757Z,98678.40
2022-08-21T21:54:15.591Z,98675.27
2022-08-21T21:56:56.085Z,98678.84
2022-08-21T21:59:29.852Z,98679.21
2022-08-21T22:02:06.404Z,98682.20
2022-08-21T22:04:52.322Z,98679.65
2022-08-21T22:07:45.100Z,98682.02
2022-08-21T22:10:50.399Z,98682.63
2022-08-21T22:13:29.835Z,98680.73
2022-08-21T22:16:03.164Z,98680.79
2022-08-21T22:18:45.206Z,98681.34
2022-08-21T22:21:30.410Z,98678.80
2022-08-21T22:24:11.445Z,98682.04
2022-08-21T22:26:44.306Z,98680.92
2022-08-21T22:29:18.613Z,98684.44
2022-08-21T22:32:02.046Z,98681.36
2022-08-21T22:34:32.737Z,98680.34
2022-08-21T22:37:05.438Z,98686.40
2022-08-21T22:39:40.702Z,98685.64
2022-08-21T22:42:31.960Z,98685.20
2022-08-21T22:45:04.680Z,98683.04
2022-08-21T22:47:44.719Z,98683.75
2022-08-21T22:50:25.846Z,98682.47
2022-08-21T22:53:03.645Z,98677.01
2022-08-21T22:55:35.064Z,98674.95
2022-08-21T22:58:07.873Z,98678.38
2022-08-21T23:01:02.344Z,98675.63
2022-08-21T23:03:44.424Z,98675.70
2022-08-21T23:06:43.570Z,98674.13
2022-08-21T23:09:20.606Z,98670.61
2022-08-21T23:14:38.440Z,98675.23
2022-08-21T23:17:14.378Z,98678.02
2022-08-21T23:19:54.153Z,98677.88
2022-08-21T23:23:02.600Z,98675.61
2022-08-21T23:26:08.339Z,98674.86
2022-08-21T23:28:48.530Z,98673.67
2022-08-21T23:31:27.353Z,98669.50
2022-08-21T23:33:54.950Z,98668.23
2022-08-21T23:37:16.368Z,98675.80
2022-08-21T23:40:02.942Z,98665.84
2022-08-21T23:42:57.281Z,98660.77
2022-08-21T23:48:42.366Z,98671.38
2022-08-21T23:51:15.467Z,98671.88
2022-08-21T23:54:06.968Z,98668.62
2022-08-21T23:57:01.669Z,98672.85
